createdAt,value
2022-07-31T00:00:17.011Z,36.00
2022-07-31T00:02:44.219Z,36.17
2022-07-31T00:05:11.476Z,36.12
2022-07-31T00:07:39.096Z,36.17
2022-07-31T00:10:06.912Z,35.92
2022-07-31T00:12:35.537Z,36.12
2022-07-31T00:15:03.003Z,35.87
2022-07-31T00:17:30.170Z,35.91
2022-07-31T00:19:57.357Z,36.15
2022-07-31T00:22:24.502Z,36.14
2022-07-31T00:24:51.687Z,35.79
2022-07-31T00:27:18.861Z,35.83
2022-07-31T00:29:47.442Z,36.21
2022-07-31T00:32:14.678Z,36.38
2022-07-31T00:34:41.839Z,36.24
2022-07-31T00:37:09.222Z,36.20
2022-07-31T00:39:36.498Z,36.38
2022-07-31T00:42:04.003Z,36.05
2022-07-31T00:44:31.477Z,35.91
2022-07-31T00:47:01.819Z,36.39
2022-07-31T00:49:37.554Z,36.00
2022-07-31T00:52:05.888Z,35.83
2022-07-31T00:54:33.596Z,35.81
2022-07-31T00:57:01.251Z,36.20
2022-07-31T00:59:29.681Z,36.09
2022-07-31T01:01:58.340Z,35.85
2022-07-31T01:04:27.359Z,36.17
2022-07-31T01:06:55.344Z,35.89
2022-07-31T01:09:22.738Z,36.05
2022-07-31T01:11:57.677Z,35.95
2022-07-31T01:14:29.014Z,36.00
2022-07-31T01:16:58.660Z,35.71
2022-07-31T01:19:39.743Z,36.02
2022-07-31T01:22:33.384Z,35.85
2022-07-31T01:25:09.677Z,36.43
2022-07-31T01:27:52.180Z,35.88
2022-07-31T01:30:28.973Z,35.93
2022-07-31T01:33:02.619Z,36.17
2022-07-31T01:35:34.056Z,36.13
2022-07-31T01:38:11.463Z,35.84
2022-07-31T01:40:42.260Z,35.93
2022-07-31T01:43:14.657Z,36.11
2022-07-31T01:45:44.834Z,36.23
2022-07-31T01:48:15.773Z,36.08
2022-07-31T01:50:44.999Z,35.73
2022-07-31T01:53:15.338Z,36.20
2022-07-31T01:56:02.984Z,35.80
2022-07-31T01:58:34.602Z,35.72
2022-07-31T02:01:05.586Z,35.84
2022-07-31T02:03:44.297Z,35.97
2022-07-31T02:06:14.469Z,35.79
2022-07-31T02:08:44.988Z,35.96
2022-07-31T02:11:14.451Z,36.27
2022-07-31T02:13:42.022Z,35.97
2022-07-31T02:16:11.602Z,36.00
2022-07-31T02:18:40.104Z,36.33
2022-07-31T02:21:07.777Z,35.97
2022-07-31T02:23:36.572Z,36.10
2022-07-31T02:26:06.733Z,36.33
2022-07-31T02:28:36.939Z,36.33
2022-07-31T02:31:06.262Z,36.46
2022-07-31T02:33:35.030Z,35.96
2022-07-31T02:36:03.442Z,36.14
2022-07-31T02:38:31.925Z,36.32
2022-07-31T02:41:01.328Z,35.98
2022-07-31T02:43:29.723Z,36.17
2022-07-31T02:45:57.827Z,36.42
2022-07-31T02:48:26.409Z,35.99
2022-07-31T02:50:55.602Z,36.25
2022-07-31T02:53:22.974Z,36.12
2022-07-31T02:55:51.379Z,36.00
2022-07-31T02:58:18.673Z,36.17
2022-07-31T03:00:46.046Z,36.31
2022-07-31T03:03:13.347Z,35.99
2022-07-31T03:05:40.530Z,36.31
2022-07-31T03:08:09.074Z,36.02
2022-07-31T03:10:36.268Z,36.43
2022-07-31T03:13:05.321Z,36.34
2022-07-31T03:15:33.860Z,36.39
2022-07-31T03:18:01.447Z,36.35
2022-07-31T03:20:35.860Z,36.05
2022-07-31T03:23:03.519Z,36.04
2022-07-31T03:25:32.962Z,36.12
2022-07-31T03:28:00.143Z,36.03
2022-07-31T03:30:27.350Z,36.16
2022-07-31T03:32:55.841Z,36.36
2022-07-31T03:35:24.293Z,36.18
2022-07-31T03:37:51.931Z,35.90
2022-07-31T03:40:19.824Z,35.98
2022-07-31T03:42:49.619Z,35.96
2022-07-31T03:45:18.711Z,36.12
2022-07-31T03:47:46.323Z,35.96
2022-07-31T03:50:14.920Z,36.15
2022-07-31T03:52:42.472Z,36.34
2022-07-31T03:55:10.436Z,36.44
2022-07-31T03:57:38.251Z,36.36
2022-07-31T04:00:16.496Z,36.38
2022-07-31T04:02:44.503Z,36.28
2022-07-31T04:05:11.861Z,36.08
2022-07-31T04:07:39.038Z,35.90
2022-07-31T04:10:07.499Z,36.26
2022-07-31T04:12:34.682Z,36.11
2022-07-31T04:15:01.857Z,35.94
2022-07-31T04:17:30.729Z,36.16
2022-07-31T04:19:58.514Z,35.79
2022-07-31T04:22:25.722Z,35.67
2022-07-31T04:24:52.942Z,36.07
2022-07-31T04:27:20.139Z,35.67
2022-07-31T04:29:47.523Z,35.99
2022-07-31T04:32:15.135Z,36.08
2022-07-31T04:34:43.681Z,36.08
2022-07-31T04:37:10.862Z,35.82
2022-07-31T04:39:38.052Z,36.04
2022-07-31T04:42:09.491Z,36.12
2022-07-31T04:44:38.902Z,35.90
2022-07-31T04:47:06.797Z,36.11
2022-07-31T04:49:34.354Z,36.14
2022-07-31T04:52:04.138Z,35.99
2022-07-31T04:54:31.592Z,36.36
2022-07-31T04:56:58.928Z,35.95
2022-07-31T05:00:00.643Z,35.88
2022-07-31T05:02:13.655Z,36.15
2022-07-31T05:04:40.777Z,35.77
2022-07-31T05:07:09.275Z,36.07
2022-07-31T05:09:36.659Z,35.93
2022-07-31T05:12:04.755Z,35.96
2022-07-31T05:14:32.150Z,36.04
2022-07-31T05:16:59.360Z,35.65
2022-07-31T05:19:26.539Z,35.73
2022-07-31T05:21:56.324Z,36.06
2022-07-31T05:24:33.359Z,36.24
2022-07-31T05:27:02.019Z,35.78
2022-07-31T05:29:29.635Z,35.87
2022-07-31T05:32:00.091Z,35.70
2022-07-31T05:34:28.455Z,36.23
2022-07-31T05:36:57.497Z,36.11
2022-07-31T05:39:26.013Z,36.28
2022-07-31T05:41:53.159Z,35.98
2022-07-31T05:44:20.320Z,35.92
2022-07-31T05:46:47.519Z,36.35
2022-07-31T05:49:14.797Z,36.32
2022-07-31T05:51:43.457Z,36.44
2022-07-31T05:54:10.718Z,37.19
2022-07-31T05:56:39.241Z,37.18
2022-07-31T05:59:06.426Z,37.17
2022-07-31T06:01:33.656Z,37.35
2022-07-31T06:04:00.930Z,37.09
2022-07-31T06:06:28.096Z,37.77
2022-07-31T06:08:55.284Z,37.52
2022-07-31T06:11:22.434Z,37.35
2022-07-31T06:13:50.968Z,37.80
2022-07-31T06:16:18.176Z,37.01
2022-07-31T06:18:45.318Z,37.33
2022-07-31T06:23:38.518Z,37.74
2022-07-31T06:26:05.911Z,37.65
2022-07-31T06:28:48.984Z,38.09
2022-07-31T06:31:19.130Z,37.47
2022-07-31T06:33:48.059Z,37.36
2022-07-31T06:36:15.897Z,37.48
2022-07-31T06:38:43.067Z,37.10
2022-07-31T06:41:10.342Z,37.35
2022-07-31T06:43:37.546Z,36.98
2022-07-31T06:46:04.782Z,37.37
2022-07-31T06:48:33.290Z,37.28
2022-07-31T06:51:27.995Z,37.14
2022-07-31T06:53:47.526Z,37.18
2022-07-31T06:56:14.693Z,36.76
2022-07-31T06:58:41.861Z,37.01
2022-07-31T07:01:09.144Z,36.88
2022-07-31T07:03:37.707Z,36.94
2022-07-31T07:06:05.115Z,37.39
2022-07-31T07:08:32.281Z,37.66
2022-07-31T07:10:59.596Z,37.40
2022-07-31T07:13:45.802Z,37.56
2022-07-31T07:16:13.887Z,37.76
2022-07-31T07:18:42.610Z,38.14
2022-07-31T07:21:09.875Z,37.82
2022-07-31T07:23:37.042Z,38.00
2022-07-31T07:26:04.325Z,37.92
2022-07-31T07:28:31.831Z,37.53
2022-07-31T07:30:59.194Z,37.35
2022-07-31T07:33:39.677Z,37.74
2022-07-31T07:36:23.484Z,37.30
2022-07-31T07:38:52.517Z,37.25
2022-07-31T07:41:20.767Z,36.99
2022-07-31T07:43:52.482Z,37.46
2022-07-31T07:46:20.973Z,37.45
2022-07-31T07:48:48.214Z,37.50
2022-07-31T07:51:17.130Z,37.38
2022-07-31T07:53:44.299Z,37.12
2022-07-31T07:56:11.611Z,37.09
2022-07-31T07:58:38.878Z,36.76
2022-07-31T08:01:06.192Z,37.00
2022-07-31T08:03:49.995Z,36.87
2022-07-31T08:06:21.779Z,36.95
2022-07-31T08:08:49.130Z,36.86
2022-07-31T08:11:17.564Z,36.75
2022-07-31T08:13:50.078Z,37.20
2022-07-31T08:16:19.044Z,37.22
2022-07-31T08:18:46.272Z,37.40
2022-07-31T08:21:13.415Z,36.94
2022-07-31T08:23:42.215Z,36.87
2022-07-31T08:26:09.366Z,37.26
2022-07-31T08:28:37.256Z,37.41
2022-07-31T08:31:04.498Z,37.19
2022-07-31T08:33:31.710Z,37.24
2022-07-31T08:35:58.919Z,36.88
2022-07-31T08:38:26.132Z,36.66
2022-07-31T08:40:54.654Z,36.93
2022-07-31T08:46:09.392Z,36.68
2022-07-31T08:48:40.500Z,36.52
2022-07-31T08:51:11.697Z,36.65
2022-07-31T08:53:39.663Z,37.15
2022-07-31T08:56:09.093Z,37.90
2022-07-31T08:58:39.685Z,37.38
2022-07-31T09:01:08.341Z,37.26
2022-07-31T09:03:35.671Z,36.40
2022-07-31T09:06:03.235Z,36.79
2022-07-31T09:08:31.857Z,36.59
2022-07-31T09:11:03.386Z,36.42
2022-07-31T09:13:35.268Z,36.45
2022-07-31T09:16:03.257Z,35.97
2022-07-31T09:18:30.909Z,36.40
2022-07-31T09:20:59.459Z,36.37
2022-07-31T09:23:28.014Z,35.76
2022-07-31T09:25:56.157Z,36.36
2022-07-31T09:28:31.890Z,35.95
2022-07-31T09:31:00.868Z,35.76
2022-07-31T09:33:29.498Z,35.61
2022-07-31T09:35:58.350Z,35.61
2022-07-31T09:38:32.065Z,35.91
2022-07-31T09:41:23.173Z,35.91
2022-07-31T09:43:56.012Z,35.74
2022-07-31T09:46:25.778Z,35.59
2022-07-31T09:48:59.925Z,36.08
2022-07-31T09:51:38.206Z,36.14
2022-07-31T09:54:05.534Z,35.72
2022-07-31T09:56:33.956Z,35.99
2022-07-31T09:59:01.808Z,36.22
2022-07-31T10:01:33.424Z,36.05
2022-07-31T10:04:02.710Z,35.84
2022-07-31T10:06:32.067Z,36.12
2022-07-31T10:09:02.018Z,35.98
2022-07-31T10:11:31.336Z,35.93
2022-07-31T10:14:02.116Z,36.01
2022-07-31T10:16:35.508Z,35.64
2022-07-31T10:19:04.471Z,35.63
2022-07-31T10:21:37.537Z,35.37
2022-07-31T10:24:07.389Z,35.68
2022-07-31T10:26:58.949Z,36.40
2022-07-31T10:29:23.115Z,36.80
2022-07-31T10:31:51.882Z,36.48
2022-07-31T10:34:21.670Z,35.77
2022-07-31T10:36:54.584Z,36.20
2022-07-31T10:39:28.459Z,35.85
2022-07-31T10:42:03.510Z,35.94
2022-07-31T10:44:38.469Z,35.74
2022-07-31T10:47:14.092Z,35.36
2022-07-31T10:49:42.920Z,35.40
2022-07-31T10:52:10.807Z,35.59
2022-07-31T10:54:42.570Z,35.80
2022-07-31T10:57:20.651Z,35.64
2022-07-31T10:59:47.999Z,35.69
2022-07-31T11:02:27.485Z,35.42
2022-07-31T11:04:58.979Z,36.62
2022-07-31T11:07:26.338Z,37.01
2022-07-31T11:09:53.489Z,38.27
2022-07-31T11:12:21.038Z,39.43
2022-07-31T11:14:48.279Z,40.19
2022-07-31T11:17:17.496Z,36.55
2022-07-31T11:20:05.780Z,36.14
2022-07-31T11:22:33.282Z,35.67
2022-07-31T11:25:00.753Z,35.57
2022-07-31T11:27:31.542Z,33.25
2022-07-31T11:30:09.090Z,47.97
2022-07-31T11:32:41.449Z,43.76
2022-07-31T11:35:08.701Z,40.07
2022-07-31T11:37:46.594Z,42.79
2022-07-31T11:40:27.480Z,45.54
2022-07-31T11:43:24.264Z,39.04
2022-07-31T11:45:46.985Z,40.28
2022-07-31T11:48:19.225Z,39.71
2022-07-31T11:50:48.285Z,37.03
2022-07-31T11:53:16.319Z,35.93
2022-07-31T11:55:45.246Z,36.38
2022-07-31T11:58:13.421Z,35.86
2022-07-31T12:00:46.699Z,31.62
2022-07-31T12:03:14.089Z,32.36
2022-07-31T12:05:46.382Z,37.15
2022-07-31T12:08:13.999Z,37.46
2022-07-31T12:10:41.794Z,37.51
2022-07-31T12:13:15.958Z,37.87
2022-07-31T12:15:55.277Z,37.49
2022-07-31T12:18:22.993Z,37.39
2022-07-31T12:20:56.140Z,37.71
2022-07-31T12:23:41.207Z,38.73
2022-07-31T12:26:11.589Z,37.66
2022-07-31T12:28:38.826Z,37.30
2022-07-31T12:31:06.052Z,37.13
2022-07-31T12:33:40.494Z,37.03
2022-07-31T12:36:13.849Z,36.82
2022-07-31T12:38:45.080Z,36.71
2022-07-31T12:41:15.438Z,37.12
2022-07-31T12:43:50.257Z,37.02
2022-07-31T12:46:18.357Z,36.69
2022-07-31T12:48:46.288Z,36.80
2022-07-31T12:51:14.962Z,36.58
2022-07-31T12:53:42.121Z,36.73
2022-07-31T12:56:10.987Z,36.80
2022-07-31T12:58:38.148Z,36.83
2022-07-31T13:01:05.310Z,36.56
2022-07-31T13:03:45.981Z,36.55
2022-07-31T13:06:15.046Z,36.54
2022-07-31T13:08:42.211Z,36.29
2022-07-31T13:11:09.374Z,36.49
2022-07-31T13:13:36.541Z,36.35
2022-07-31T13:16:03.908Z,36.56
2022-07-31T13:18:31.054Z,36.44
2022-07-31T13:20:58.504Z,36.74
2022-07-31T13:23:27.053Z,36.42
2022-07-31T13:25:54.295Z,36.36
2022-07-31T13:28:21.426Z,36.74
2022-07-31T13:30:53.218Z,36.37
2022-07-31T13:33:22.475Z,36.73
2022-07-31T13:35:49.634Z,36.22
2022-07-31T13:38:17.306Z,36.13
2022-07-31T13:40:45.789Z,36.28
2022-07-31T13:43:13.198Z,36.47
2022-07-31T13:45:40.359Z,36.05
2022-07-31T13:48:09.586Z,36.21
2022-07-31T13:50:37.235Z,35.96
2022-07-31T13:53:04.489Z,36.38
2022-07-31T13:55:31.740Z,36.22
2022-07-31T13:58:01.456Z,35.96
2022-07-31T14:00:30.215Z,36.22
2022-07-31T14:02:57.601Z,36.27
2022-07-31T14:05:26.579Z,36.36
2022-07-31T14:07:54.981Z,36.10
2022-07-31T14:10:22.256Z,35.74
2022-07-31T14:12:50.091Z,36.09
2022-07-31T14:15:18.801Z,35.96
2022-07-31T14:17:46.069Z,35.74
2022-07-31T14:20:13.703Z,35.57
2022-07-31T14:22:41.086Z,35.76
2022-07-31T14:25:08.831Z,35.85
2022-07-31T14:27:36.015Z,35.64
2022-07-31T14:30:04.819Z,35.50
2022-07-31T14:32:33.533Z,35.77
2022-07-31T14:35:04.572Z,35.61
2022-07-31T14:37:34.718Z,35.97
2022-07-31T14:40:01.903Z,35.69
2022-07-31T14:42:29.034Z,36.01
2022-07-31T14:44:56.173Z,35.73
2022-07-31T14:47:23.668Z,35.81
2022-07-31T14:50:09.552Z,35.84
2022-07-31T14:52:38.489Z,35.73
2022-07-31T14:55:06.603Z,35.72
2022-07-31T14:57:33.867Z,36.28
2022-07-31T15:00:01.131Z,36.19
2022-07-31T15:02:28.406Z,36.14
2022-07-31T15:04:56.994Z,36.86
2022-07-31T15:07:45.848Z,38.37
2022-07-31T15:10:12.014Z,37.03
2022-07-31T15:12:39.365Z,36.39
2022-07-31T15:15:07.666Z,36.68
2022-07-31T15:17:34.854Z,36.56
2022-07-31T15:20:04.103Z,36.12
2022-07-31T15:22:31.289Z,36.29
2022-07-31T15:24:58.463Z,35.90
2022-07-31T15:27:25.662Z,36.16
2022-07-31T15:30:03.301Z,36.14
2022-07-31T15:32:36.087Z,36.06
2022-07-31T15:35:06.409Z,35.75
2022-07-31T15:37:35.021Z,36.03
2022-07-31T15:40:04.116Z,35.96
2022-07-31T15:42:31.462Z,35.71
2022-07-31T15:44:58.673Z,36.00
2022-07-31T15:47:26.052Z,36.10
2022-07-31T15:49:53.237Z,35.81
2022-07-31T15:52:21.791Z,36.11
2022-07-31T15:54:51.650Z,36.37
2022-07-31T15:57:19.726Z,36.09
2022-07-31T15:59:46.947Z,35.92
2022-07-31T16:02:14.115Z,35.76
2022-07-31T16:04:52.755Z,35.84
2022-07-31T16:08:28.877Z,35.59
2022-07-31T16:10:16.596Z,36.17
2022-07-31T16:12:44.857Z,36.07
2022-07-31T16:15:12.891Z,39.04
2022-07-31T16:17:40.395Z,36.82
2022-07-31T16:20:09.674Z,36.19
2022-07-31T16:22:40.254Z,36.46
2022-07-31T16:25:08.722Z,36.46
2022-07-31T16:27:36.489Z,36.50
2022-07-31T16:30:04.961Z,36.63
2022-07-31T16:32:32.445Z,36.40
2022-07-31T16:35:01.313Z,36.47
2022-07-31T16:37:51.016Z,36.75
2022-07-31T16:40:30.648Z,36.72
2022-07-31T16:43:00.088Z,36.18
2022-07-31T16:45:27.354Z,36.47
2022-07-31T16:47:54.524Z,36.38
2022-07-31T16:50:21.834Z,36.58
2022-07-31T16:52:52.599Z,36.21
2022-07-31T16:55:59.859Z,36.22
2022-07-31T16:58:11.818Z,36.28
2022-07-31T17:00:39.559Z,36.08
2022-07-31T17:03:06.917Z,36.17
2022-07-31T17:05:54.040Z,36.23
2022-07-31T17:08:21.600Z,36.08
2022-07-31T17:10:54.066Z,36.34
2022-07-31T17:13:22.301Z,36.09
2022-07-31T17:15:49.518Z,36.02
2022-07-31T17:18:16.701Z,36.28
2022-07-31T17:20:43.875Z,36.43
2022-07-31T17:23:11.039Z,36.67
2022-07-31T17:25:38.256Z,36.34
2022-07-31T17:28:11.140Z,36.62
2022-07-31T17:30:42.290Z,36.36
2022-07-31T17:33:09.442Z,36.70
2022-07-31T17:35:36.615Z,36.76
2022-07-31T17:38:04.201Z,36.44
2022-07-31T17:40:43.464Z,36.39
2022-07-31T17:43:13.287Z,36.67
2022-07-31T17:46:05.209Z,36.22
2022-07-31T17:48:28.011Z,36.67
2022-07-31T17:50:55.176Z,36.72
2022-07-31T17:53:22.373Z,36.40
2022-07-31T17:55:49.630Z,36.22
2022-07-31T17:58:18.183Z,36.06
2022-07-31T18:00:45.351Z,35.37
2022-07-31T18:03:12.754Z,35.05
2022-07-31T18:05:39.943Z,35.07
2022-07-31T18:08:07.145Z,35.11
2022-07-31T18:10:53.379Z,35.32
2022-07-31T18:13:22.769Z,35.09
2022-07-31T18:15:49.978Z,34.88
2022-07-31T18:18:17.445Z,35.18
2022-07-31T18:20:44.655Z,35.35
2022-07-31T18:23:12.098Z,35.06
2022-07-31T18:25:41.686Z,35.15
2022-07-31T18:28:08.933Z,35.15
2022-07-31T18:30:38.847Z,34.67
2022-07-31T18:33:06.331Z,34.91
2022-07-31T18:35:33.515Z,34.66
2022-07-31T18:38:00.691Z,34.83
2022-07-31T18:40:27.921Z,34.34
2022-07-31T18:42:55.114Z,34.39
2022-07-31T18:45:22.287Z,34.40
2022-07-31T18:47:50.864Z,34.41
2022-07-31T18:50:58.660Z,34.42
2022-07-31T18:53:05.187Z,34.37
2022-07-31T18:55:32.398Z,34.14
2022-07-31T18:57:59.621Z,34.38
2022-07-31T19:00:26.800Z,34.29
2022-07-31T19:02:55.337Z,34.22
2022-07-31T19:05:22.816Z,34.11
2022-07-31T19:07:51.843Z,33.92
2022-07-31T19:10:29.656Z,34.43
2022-07-31T19:12:58.801Z,34.65
2022-07-31T19:15:26.142Z,34.52
2022-07-31T19:17:58.400Z,34.42
2022-07-31T19:20:51.741Z,34.78
2022-07-31T19:23:13.148Z,34.31
2022-07-31T19:26:03.017Z,34.72
2022-07-31T19:28:27.580Z,34.74
2022-07-31T19:30:55.406Z,34.82
2022-07-31T19:33:23.958Z,34.71
2022-07-31T19:35:56.922Z,35.03
2022-07-31T19:38:28.067Z,34.92
2022-07-31T19:40:55.350Z,34.84
2022-07-31T19:43:22.902Z,34.91
2022-07-31T19:46:09.645Z,34.94
2022-07-31T19:48:38.887Z,35.21
2022-07-31T19:51:06.458Z,34.93
2022-07-31T19:53:33.649Z,35.31
2022-07-31T19:56:00.869Z,35.40
2022-07-31T19:58:28.043Z,35.23
2022-07-31T20:00:55.198Z,35.30
2022-07-31T20:03:22.498Z,35.40
2022-07-31T20:05:51.327Z,35.35
2022-07-31T20:08:18.554Z,35.67
2022-07-31T20:10:45.811Z,35.41
2022-07-31T20:13:13.343Z,35.52
2022-07-31T20:15:52.016Z,35.74
2022-07-31T20:18:26.956Z,35.42
2022-07-31T20:20:57.886Z,35.46
2022-07-31T20:23:25.410Z,35.66
2022-07-31T20:25:53.041Z,35.84
2022-07-31T20:28:21.586Z,35.72
2022-07-31T20:30:49.240Z,35.64
2022-07-31T20:33:16.427Z,35.34
2022-07-31T20:35:49.324Z,35.79
2022-07-31T20:38:18.868Z,35.37
2022-07-31T20:40:52.953Z,35.60
2022-07-31T20:43:20.444Z,35.77
2022-07-31T20:45:47.848Z,35.55
2022-07-31T20:48:15.638Z,35.45
2022-07-31T20:50:42.806Z,35.72
2022-07-31T20:53:11.441Z,35.56
2022-07-31T20:55:39.986Z,35.88
2022-07-31T20:58:07.129Z,35.99
2022-07-31T21:00:34.303Z,36.01
2022-07-31T21:03:01.449Z,35.51
2022-07-31T21:05:28.573Z,35.90
2022-07-31T21:07:55.957Z,35.77
2022-07-31T21:10:23.329Z,35.89
2022-07-31T21:12:51.935Z,35.83
2022-07-31T21:15:40.685Z,35.92
2022-07-31T21:18:06.419Z,35.95
2022-07-31T21:20:50.981Z,35.93
2022-07-31T21:23:21.622Z,35.96
2022-07-31T21:25:49.508Z,36.08
2022-07-31T21:28:18.564Z,35.80
2022-07-31T21:30:46.080Z,35.52
2022-07-31T21:33:13.450Z,35.91
2022-07-31T21:35:41.244Z,36.04
2022-07-31T21:38:10.250Z,35.78
2022-07-31T21:40:38.345Z,36.05
2022-07-31T21:43:06.169Z,35.83
2022-07-31T21:45:49.747Z,35.63
2022-07-31T21:48:23.204Z,36.13
2022-07-31T21:50:50.786Z,36.13
2022-07-31T21:53:17.987Z,35.88
2022-07-31T21:55:45.120Z,36.16
2022-07-31T21:58:12.595Z,36.12
2022-07-31T22:00:41.241Z,35.94
2022-07-31T22:03:08.642Z,35.98
2022-07-31T22:05:35.860Z,36.32
2022-07-31T22:08:03.373Z,36.00
2022-07-31T22:10:32.449Z,36.28
2022-07-31T22:12:59.715Z,36.18
2022-07-31T22:15:26.877Z,35.88
2022-07-31T22:18:15.839Z,36.03
2022-07-31T22:20:43.609Z,35.89
2022-07-31T22:23:11.405Z,35.95
2022-07-31T22:25:40.233Z,36.31
2022-07-31T22:28:07.901Z,36.22
2022-07-31T22:30:35.307Z,36.34
2022-07-31T22:33:03.051Z,36.35
2022-07-31T22:35:32.682Z,36.19
2022-07-31T22:37:59.961Z,36.04
2022-07-31T22:40:27.275Z,36.50
2022-07-31T22:42:56.089Z,36.56
2022-07-31T22:45:24.099Z,36.17
2022-07-31T22:47:51.383Z,36.15
2022-07-31T22:50:19.014Z,36.31
2022-07-31T22:52:47.621Z,36.41
2022-07-31T22:55:14.833Z,36.14
2022-07-31T22:57:42.113Z,36.57
2022-07-31T23:00:11.663Z,36.11
2022-07-31T23:02:39.488Z,36.09
2022-07-31T23:05:08.163Z,36.27
2022-07-31T23:07:35.700Z,36.61
2022-07-31T23:10:04.907Z,36.33
2022-07-31T23:12:32.119Z,36.34
2022-07-31T23:14:59.297Z,36.39
2022-07-31T23:17:26.512Z,36.42
2022-07-31T23:19:54.408Z,36.29
2022-07-31T23:22:33.316Z,36.29
2022-07-31T23:25:01.498Z,36.31
2022-07-31T23:27:30.020Z,36.08
2022-07-31T23:29:57.204Z,36.09
2022-07-31T23:32:24.475Z,36.37
2022-07-31T23:34:51.659Z,36.57
2022-07-31T23:37:19.233Z,36.24
2022-07-31T23:39:46.386Z,36.57
2022-07-31T23:42:13.551Z,36.24
2022-07-31T23:44:42.697Z,36.57
2022-07-31T23:47:16.030Z,36.16
2022-07-31T23:49:43.395Z,36.46
2022-07-31T23:52:10.645Z,36.58
2022-07-31T23:54:37.903Z,36.49
2022-07-31T23:57:05.108Z,36.42
2022-07-31T23:59:32.314Z,36.48
